Tiempo atmosférico en la estación meteorológica de Prat de Lluçanès, Barcelona (700 m.)



Fecha
DESCASC
Temp. máxima en grados centígrados (hora)
DESCASC
Temp. mínima en grados centígrados (hora)
DESCASC
Temp. media en grados centígrados
DESCASC
Racha de viento máxima en m/sg (hora)
DESCASC
Velocidad máxima media en intervalos de 10 minutos(hora)
DESCASC
Precipitaciones diarias en mm
DESCASC
Precipitaciones de 00:00 a 06:00 en mm
DESCASC
Precipitaciones de 06:00 a 12:00 en mm
DESCASC
Precipitaciones de 12:00 a 18:00 en mm
DESCASC
Precipitaciones de 18:00 a 24:00 en mm
DESCASC

Gráficas

Temp. máximas Temp. mínimas Temp. medias Precipitaciones Rachas de viento máximas Velocidades máximas media en intervalos de 10 minutos

Datos horarios

Fecha y hora oficial Temperatura (ºC) Velocidad del viento (km/h) Dirección del viento Racha (km/h) Dirección de racha Precipitación (mm) Presión (hPa) Tendencia (hPa) Humedad (%)
2020-07-01 23:00:00 22.8 9 Nordeste 17 Nordeste 0 -- -- 72
2020-07-01 22:00:00 23.8 9 Este 19 Este 0 -- -- 67
2020-07-01 21:00:00 26 8 Este 18 Este 0 -- -- 61
2020-07-01 20:00:00 29.8 5 Sur 19 Sur 0 -- -- 48
2020-07-01 19:00:00 31.6 6 Sur 17 Sur 0 -- -- 41
2020-07-01 18:00:00 32 6 Sur 17 Sudoeste 0 -- -- 37
2020-07-01 17:00:00 31.8 6 Sur 17 Sudoeste 0 -- -- 38
2020-07-01 16:00:00 31.3 5 Sur 21 Sur 0 -- -- 36
2020-07-01 15:00:00 30.4 6 Sur 23 Sudoeste 0 -- -- 35
2020-07-01 14:00:00 30.2 5 Sur 23 Sudoeste 0 -- -- 40
2020-07-01 13:00:00 28.6 9 Sudoeste 22 Sudoeste 0 -- -- 43
2020-07-01 12:00:00 28 5 Sur 17 Sudoeste 0 -- -- 40
2020-07-01 11:00:00 27.2 5 Sur 12 Sudoeste 0 -- -- 47
2020-07-01 10:00:00 26.1 2 Este 6 Este 0 -- -- 53
2020-07-01 09:00:00 23.6 3 Este 7 Este 0 -- -- 62
2020-07-01 08:00:00 19.3 0 Calma 6 Norte 0 -- -- 89
2020-07-01 07:00:00 16.9 4 Norte 9 Norte 0 -- -- 92
2020-07-01 06:00:00 17.5 3 Norte 7 Noroeste 0 -- -- 92
2020-07-01 05:00:00 19 2 Nordeste 15 Noroeste 0 -- -- 92
2020-07-01 04:00:00 19.6 4 Norte 13 Noroeste 0 -- -- 91
2020-07-01 03:00:00 19.4 4 Oeste 22 Norte 0 -- -- 93
2020-07-01 02:00:00 20.3 0 Calma 15 Oeste 0 -- -- 88
2020-07-01 01:00:00 20.3 3 Sur 10 Noroeste 0 -- -- 86
2020-07-01 00:00:00 19.9 5 Noroeste 9 Noroeste 0 -- -- 86
2020-06-30 23:00:00 21.7 6 Nordeste 15 Nordeste 0 -- -- 79
2020-06-30 22:00:00 22.4 3 Noroeste 8 Sudoeste 0 -- -- 76
2020-06-30 21:00:00 24.9 4 Sudoeste 13 Sur 0 -- -- 69
2020-06-30 20:00:00 27 7 Sur 18 Sur 0 -- -- 62
2020-06-30 19:00:00 27.4 5 Sur 22 Sur 0 -- -- 65
2020-06-30 18:00:00 27.9 5 Sur 22 Sudoeste 0 -- -- 64
2020-06-30 17:00:00 28.5 7 Sur 20 Sur 0 -- -- 61
2020-06-30 16:00:00 28.1 6 Sur 19 Sudoeste 0 -- -- 63
2020-06-30 15:00:00 26.1 10 Sur 19 Sur 0 -- -- 68
2020-06-30 14:00:00 23.9 4 Sur 15 Oeste 0 -- -- 77
2020-06-30 13:00:00 22.8 3 Sur 13 Sur 0 -- -- 82
2020-06-30 12:00:00 21.5 5 Sur 13 Sur 0 -- -- 85
2020-06-30 11:00:00 20.3 4 Sur 10 Sur 0 -- -- 91
2020-06-30 10:00:00 19.3 4 Sur 10 Sur 0 -- -- 95
2020-06-30 09:00:00 19.1 3 Sur 8 Sur 0 -- -- 97
2020-06-30 08:00:00 19 3 Sur 9 Sudoeste 0 -- -- 95
2020-06-30 07:00:00 19 5 Sur 11 Sur 0 -- -- 95
2020-06-30 06:00:00 19 4 Sur 9 Sudoeste 0 -- -- 96
2020-06-30 05:00:00 19.2 4 Sur 12 Sudoeste 0 -- -- 93
2020-06-30 04:00:00 19.4 5 Sudoeste 10 Oeste 0 -- -- 92
2020-06-30 03:00:00 19.7 5 Oeste 10 Sudoeste 0 -- -- 90
2020-06-30 02:00:00 20 4 Oeste 13 Sudoeste 0 -- -- 89
2020-06-30 01:00:00 20.3 6 Sur 14 Sudoeste 0 -- -- 90
2020-06-30 00:00:00 20.7 5 Sur 10 Sur 0 -- -- 91
2020-06-29 23:00:00 21.1 5 Sur 13 Sur 0 -- -- 89
2020-06-29 22:00:00 21.5 3 Sudeste 10 Sur 0 -- -- 88
2020-06-29 21:00:00 22.2 4 Sur 12 Sur 0 -- -- 85
2020-06-29 20:00:00 23.9 5 Sur 21 Sur 0 -- -- 77
2020-06-29 19:00:00 25.7 10 Sur 26 Sur 0 -- -- 71
2020-06-29 18:00:00 27.5 11 Sur 26 Sudoeste 0 -- -- 65
2020-06-29 17:00:00 28.7 11 Sur 27 Sur 0 -- -- 59
2020-06-29 16:00:00 28.8 11 Sur 26 Sur 0 -- -- 54
2020-06-29 15:00:00 28.2 8 Sur 22 Sur 0 -- -- 55
2020-06-29 14:00:00 28.3 6 Sur 20 Sur 0 -- -- 55
2020-06-29 13:00:00 26.9 6 Sur 19 Oeste 0 -- -- 57
2020-06-29 12:00:00 25.8 7 Sudoeste 18 Sur 0 -- -- 56
2020-06-29 11:00:00 25.2 4 Sur 12 Este 0 -- -- 58
2020-06-29 10:00:00 24 6 Sudoeste 11 Sudoeste 0 -- -- 63
2020-06-29 09:00:00 23.3 2 Sur 6 Este 0 -- -- 70
2020-06-29 08:00:00 19 2 Norte 5 Norte 0 -- -- 88
2020-06-29 07:00:00 16.4 4 Noroeste 5 Noroeste 0 -- -- 94
2020-06-29 06:00:00 16.5 4 Noroeste 8 Noroeste 0 -- -- 94
2020-06-29 05:00:00 16.7 3 Noroeste 6 Noroeste 0 -- -- 93
2020-06-29 04:00:00 17 5 Noroeste 6 Noroeste 0 -- -- 92
2020-06-29 03:00:00 17.6 5 Noroeste 6 Noroeste 0 -- -- 90
2020-06-29 02:00:00 18.8 3 Norte 7 Nordeste 0 -- -- 86
2020-06-29 01:00:00 20.1 3 Nordeste 9 Norte 0 -- -- 81
2020-06-29 00:00:00 19.3 3 Noroeste 7 Noroeste 0 -- -- 86
2020-06-28 23:00:00 20.6 4 Noroeste 6 Noroeste 0 -- -- 81
2020-06-28 22:00:00 22.8 0 Calma 5 Sur 0 -- -- 72
2020-06-28 21:00:00 24.9 3 Sur 12 Sudoeste 0 -- -- 61
2020-06-28 20:00:00 26.4 3 Sur 20 Sur 0 -- -- 60
2020-06-28 19:00:00 26.5 5 Sur 22 Sudoeste 0 -- -- 66
2020-06-28 18:00:00 29.3 7 Sur 22 Sudoeste 0 -- -- 52
2020-06-28 17:00:00 29.8 7 Sur 24 Sur 0 -- -- 47
2020-06-28 16:00:00 29.9 11 Sur 26 Sur 0 -- -- 46
2020-06-28 15:00:00 29.2 11 Sur 23 Sur 0 -- -- 46
2020-06-28 14:00:00 28.7 8 Sur 22 Sudoeste 0 -- -- 50
2020-06-28 13:00:00 27.4 9 Sudoeste 19 Sur 0 -- -- 56
2020-06-28 12:00:00 26.3 4 Sur 13 Sur 0 -- -- 59
2020-06-28 11:00:00 25.2 4 Sudeste 12 Sur 0 -- -- 61
2020-06-28 10:00:00 23.9 4 Este 10 Este 0 -- -- 69
2020-06-28 09:00:00 22.5 3 Sudeste 8 Este 0 -- -- 74
2020-06-28 08:00:00 18.9 5 Noroeste 10 Noroeste 0 -- -- 93
2020-06-28 07:00:00 17.2 3 Noroeste 12 Noroeste 0 -- -- 95
2020-06-28 06:00:00 17.4 2 Norte 6 Noroeste 0 -- -- 95
2020-06-28 05:00:00 18.1 3 Noroeste 5 Noroeste 0 -- -- 93
2020-06-28 04:00:00 18.2 2 Sudoeste 6 Norte 0 -- -- 92
2020-06-28 03:00:00 18 3 Norte 9 Nordeste 0 -- -- 89
2020-06-28 02:00:00 18.6 2 Norte 5 Norte 0 -- -- 88
2020-06-28 01:00:00 20.4 3 Nordeste 9 Nordeste 0 -- -- 81
2020-06-28 00:00:00 21.6 5 Nordeste 9 Nordeste 0 -- -- 79
2020-06-27 23:00:00 22.2 2 Nordeste 6 Nordeste 0 -- -- 77
2020-06-27 22:00:00 22.5 3 Sudoeste 9 Sur 0 -- -- 76
2020-06-27 21:00:00 24 4 Sur 14 Sudoeste 0 -- -- 66
2020-06-27 20:00:00 26.2 7 Sur 22 Sur 0 -- -- 59
2020-06-27 19:00:00 28 11 Sur 24 Sur 0 -- -- 55
2020-06-27 18:00:00 29.2 7 Sur 22 Sur 0 -- -- 47
2020-06-27 17:00:00 29.4 7 Sur 21 Oeste 0 -- -- 41
2020-06-27 16:00:00 29.1 6 Sur 23 Sudoeste 0 -- -- 37
2020-06-27 15:00:00 28.7 6 Sur 24 Sudoeste 0 -- -- 39
2020-06-27 14:00:00 28.1 5 Sur 19 Sur 0 -- -- 43
2020-06-27 13:00:00 26.8 7 Sur 19 Sudoeste 0 -- -- 33
2020-06-27 12:00:00 26.2 4 Sudoeste 12 Sur 0 -- -- 43
2020-06-27 11:00:00 25.4 3 Sur 9 Sur 0 -- -- 51
2020-06-27 10:00:00 23.9 3 Sudeste 8 Sur 0 -- -- 54
2020-06-27 09:00:00 22.6 2 Este 6 Este 0 -- -- 58
2020-06-27 08:00:00 17.4 3 Noroeste 6 Noroeste 0 -- -- 81
2020-06-27 07:00:00 15.4 5 Noroeste 6 Noroeste 0 -- -- 85
2020-06-27 06:00:00 17.4 3 Nordeste 9 Nordeste 0 -- -- 75
2020-06-27 05:00:00 16.6 4 Noroeste 6 Noroeste 0 -- -- 86
2020-06-27 04:00:00 16.7 3 Noroeste 6 Norte 0 -- -- 82
2020-06-27 03:00:00 17.4 4 Noroeste 8 Noroeste 0 -- -- 84
2020-06-27 02:00:00 17.4 0 Calma 7 Noroeste 0 -- -- 85
2020-06-27 01:00:00 16.5 4 Norte 8 Noroeste 0 -- -- 85
2020-06-27 00:00:00 16.6 4 Noroeste 8 Noroeste 0 -- -- 82
2020-06-26 23:00:00 18.1 3 Noroeste 6 Noroeste 0 -- -- 76
2020-06-26 22:00:00 20.5 3 Oeste 6 Sudoeste 0 -- -- 67
2020-06-26 21:00:00 22.7 3 Sudoeste 11 Sur 0 -- -- 55
2020-06-26 20:00:00 25.2 7 Sur 23 Sur 0 -- -- 46
2020-06-26 19:00:00 27.7 8 Sur 21 Sur 0 -- -- 41
2020-06-26 18:00:00 28.8 9 Sur 21 Sudoeste 0 -- -- 39
2020-06-26 17:00:00 29.4 7 Sur 23 Sur 0 -- -- 40
2020-06-26 16:00:00 29.4 8 Sur 26 Sudoeste 0 -- -- 42
2020-06-26 15:00:00 29.3 8 Sur 26 Sudoeste 0 -- -- 41
2020-06-26 14:00:00 28.5 6 Sudeste 20 Sur 0 -- -- 43
2020-06-26 13:00:00 27.6 5 Sur 15 Sudeste 0 -- -- 44
2020-06-26 12:00:00 26.6 6 Sur 15 Sur 0 -- -- 48
2020-06-26 11:00:00 25 3 Sur 11 Sudoeste 0 -- -- 53
2020-06-26 10:00:00 23.6 3 Sur 8 Este 0 -- -- 51
2020-06-26 09:00:00 22.5 5 Este 8 Este 0 -- -- 61
2020-06-26 08:00:00 17.8 4 Noroeste 6 Norte 0 -- -- 79
2020-06-26 07:00:00 15.7 4 Noroeste 7 Norte 0 -- -- 87
2020-06-26 06:00:00 15.4 4 Noroeste 8 Noroeste 0 -- -- 88
2020-06-26 05:00:00 16.7 2 Noroeste 10 Oeste 0 -- -- 82
2020-06-26 04:00:00 16.9 4 Norte 8 Noroeste 0 -- -- 83
2020-06-26 03:00:00 18.4 3 Noroeste 12 Este 0 -- -- 77
2020-06-26 02:00:00 19.6 6 Este 16 Este 0 -- -- 67
2020-06-26 01:00:00 19.3 6 Nordeste 12 Nordeste 0 -- -- 69
2020-06-26 00:00:00 18.9 0 Calma 12 Oeste 0 -- -- 78
2020-06-25 23:00:00 19 4 Oeste 8 Noroeste 0 -- -- 72
2020-06-25 22:00:00 19.6 2 Sudoeste 9 Noroeste 0 -- -- 78
2020-06-25 21:00:00 21.2 2 Norte 17 Noroeste 0 -- -- 64
2020-06-25 20:00:00 20.8 12 Noroeste 18 Noroeste 0 -- -- 69
2020-06-25 19:00:00 21.5 4 Norte 16 Nordeste 0 -- -- 66
2020-06-25 18:00:00 23 7 Norte 27 Noroeste 0 -- -- 64
2020-06-25 17:00:00 29.8 4 Norte 15 Norte 0 -- -- 39
2020-06-25 16:00:00 30.3 4 Sudeste 15 Sur 0 -- -- 42
2020-06-25 15:00:00 29.7 4 Sur 17 Sur 0 -- -- 38
2020-06-25 14:00:00 29 5 Sur 15 Sur 0 -- -- 47
2020-06-25 13:00:00 27.5 5 Sur 15 Sur 0 -- -- 51
2020-06-25 12:00:00 26.4 4 Sudoeste 15 Sur 0 -- -- 54
2020-06-25 11:00:00 25.5 2 Sudeste 8 Este 0 -- -- 54
2020-06-25 10:00:00 23.9 3 Sudeste 9 Nordeste 0 -- -- 58
2020-06-25 09:00:00 22.1 5 Nordeste 11 Nordeste 0 -- -- 65
2020-06-25 08:00:00 17.8 0 Calma 8 Norte 0 -- -- 87
2020-06-25 07:00:00 14.9 5 Norte 6 Norte 0 -- -- 93
2020-06-25 06:00:00 15.5 4 Noroeste 6 Norte 0 -- -- 91
2020-06-25 05:00:00 17.2 2 Norte 4 Noroeste 0 -- -- 89
2020-06-25 04:00:00 17.9 3 Noroeste 7 Oeste 0 -- -- 86
2020-06-25 03:00:00 18.5 3 Oeste 8 Oeste 0 -- -- 82
2020-06-25 02:00:00 18.5 0 Calma 5 Sudoeste 0 -- -- 82
2020-06-25 01:00:00 19.1 3 Noroeste 9 Noroeste 0 -- -- 81
2020-06-25 00:00:00 19.7 4 Noroeste 8 Nordeste 0 -- -- 78
2020-06-24 23:00:00 19.6 2 Noroeste 5 Norte 0 -- -- 81
2020-06-24 22:00:00 21.1 0 Calma 13 Sudoeste 0 -- -- 72
2020-06-24 21:00:00 22.6 8 Oeste 15 Oeste 0 -- -- 62
2020-06-24 20:00:00 24.5 2 Sur 9 Sudoeste 0 -- -- 53
2020-06-24 19:00:00 25.2 5 Sudoeste 30 Sur 0 -- -- 50
2020-06-24 18:00:00 28 12 Sur 32 Sur 0 -- -- 48
2020-06-24 17:00:00 28.8 7 Sur 27 Sudoeste 0 -- -- 51
2020-06-24 16:00:00 28.6 9 Sur 20 Sudoeste 0 -- -- 50
2020-06-24 15:00:00 28.3 7 Sur 27 Sur 0 -- -- 49
2020-06-24 14:00:00 27.2 7 Sur 17 Sudoeste 0 -- -- 49
2020-06-24 13:00:00 26.2 5 Sur 15 Sudoeste 0 -- -- 52
2020-06-24 12:00:00 24.6 5 Sur 24 Sudoeste 0 -- -- 58
2020-06-24 11:00:00 23.1 6 Sur 17 Sur 0 -- -- 58
2020-06-24 10:00:00 22.4 4 Sur 10 Sur 0 -- -- 63
2020-06-24 09:00:00 21 3 Sur 8 Sur 0 -- -- 65
2020-06-24 08:00:00 17.1 0 Calma 4 Noroeste 0 -- -- 84
2020-06-24 07:00:00 14.4 3 Noroeste 6 Noroeste 0 -- -- 94
2020-06-24 06:00:00 14.3 4 Norte 6 Noroeste 0 -- -- 93
2020-06-24 05:00:00 14.8 5 Noroeste 6 Norte 0 -- -- 92
2020-06-24 04:00:00 15.5 5 Norte 6 Noroeste 0 -- -- 89
2020-06-24 03:00:00 16.1 3 Noroeste 6 Noroeste 0 -- -- 88
2020-06-24 02:00:00 16.4 3 Noroeste 5 Noroeste 0 -- -- 88
2020-06-24 01:00:00 17.1 5 Noroeste 6 Norte 0 -- -- 86
2020-06-24 00:00:00 17.9 3 Noroeste 6 Noroeste 0 -- -- 82
2020-06-23 23:00:00 19.5 3 Noroeste 6 Noroeste 0 -- -- 77
2020-06-23 22:00:00 21.3 4 Oeste 8 Oeste 0 -- -- 69
2020-06-23 21:00:00 23.5 6 Sur 16 Sur 0 -- -- 60
2020-06-23 20:00:00 26 8 Sur 20 Sur 0 -- -- 56
2020-06-23 19:00:00 27.5 9 Sur 20 Sur 0 -- -- 53
2020-06-23 18:00:00 28.4 10 Sur 21 Sur 0 -- -- 53
2020-06-23 17:00:00 28.8 6 Sur 18 Sudoeste 0 -- -- 52
2020-06-23 16:00:00 27.6 6 Sur 27 Sudoeste 0 -- -- 56
2020-06-23 15:00:00 27.5 9 Sudoeste 21 Sudoeste 0 -- -- 53
2020-06-23 14:00:00 26.6 9 Oeste 21 Sudoeste 0 -- -- 52
2020-06-23 13:00:00 26.2 7 Sur 21 Sur 0 -- -- 51
2020-06-23 12:00:00 25.2 8 Sur 23 Sudoeste 0 -- -- 51
2020-06-23 11:00:00 24.1 6 Sur 22 Sur 0 -- -- 55
2020-06-23 10:00:00 23.3 3 Sur 10 Sudoeste 0 -- -- 61
2020-06-23 09:00:00 22.1 5 Este 8 Este 0 -- -- 71
2020-06-23 08:00:00 18.5 0 Calma -- -- 0 -- -- 88
2020-06-23 07:00:00 17.2 0 Calma -- -- 0 -- -- 92
2020-06-23 06:00:00 17.8 0 Calma -- -- 0 -- -- 89
2020-06-23 05:00:00 17.4 0 Calma 4 Norte 0 -- -- 93
2020-06-23 04:00:00 16.5 2 Norte 5 Noroeste 0 -- -- 95
2020-06-23 03:00:00 17.2 4 Noroeste 5 Noroeste 0 -- -- 90
2020-06-23 02:00:00 18.4 3 Oeste 6 Oeste 0 -- -- 89
2020-06-23 01:00:00 19.1 4 Oeste 7 Sudoeste 0 -- -- 88
2020-06-23 00:00:00 19.7 4 Oeste 10 Sur 0 -- -- 88
2020-06-22 23:00:00 20.3 3 Sur 10 Sur 0 -- -- 85
2020-06-22 22:00:00 21 5 Sur 12 Sudoeste 0 -- -- 83
2020-06-22 21:00:00 22.9 3 Sur 13 Sur 0 -- -- 77
2020-06-22 20:00:00 24.8 4 Sur 18 Sur 0 -- -- 69
2020-06-22 19:00:00 26.2 8 Sur 18 Sur 0 -- -- 62
2020-06-22 18:00:00 27.8 5 Sur 21 Sudoeste 0 -- -- 56
2020-06-22 17:00:00 28.3 5 Sur 18 Sur 0 -- -- 55
2020-06-22 16:00:00 28.1 10 Sudoeste 17 Sudoeste 0 -- -- 49
2020-06-22 15:00:00 27 6 Sudoeste 21 Sur 0 -- -- 51
2020-06-22 14:00:00 26.2 5 Sur 18 Sur 0 -- -- 54
2020-06-22 13:00:00 25.2 8 Sudoeste 17 Oeste 0 -- -- 61
2020-06-22 12:00:00 25 4 Sur 12 Sudoeste 0 -- -- 61
2020-06-22 11:00:00 23.3 4 Sudoeste 11 Sur 0 -- -- 68
2020-06-22 10:00:00 22 5 Sudoeste 13 Oeste 0 -- -- 68
2020-06-22 09:00:00 20.7 2 Sur 8 Sur 0 -- -- 81
2020-06-22 08:00:00 17.4 2 Nordeste 5 Norte 0 -- -- 100
2020-06-22 07:00:00 15 2 Norte 5 Norte 0 -- -- 99
2020-06-22 06:00:00 15.3 0 Calma 6 Noroeste 0 -- -- 99
2020-06-22 05:00:00 15.3 5 Noroeste 6 Noroeste 0 -- -- 97
2020-06-22 04:00:00 16.5 3 Noroeste 7 Norte 0 -- -- 95
2020-06-22 03:00:00 17.4 4 Noroeste 10 Noroeste 0 -- -- 94
2020-06-22 02:00:00 17.3 3 Noroeste 7 Noroeste 0 -- -- 92
2020-06-22 01:00:00 18.3 3 Norte 9 Este 0 -- -- 89
2020-06-22 00:00:00 19.9 4 Nordeste 9 Este 0 -- -- 85
2020-06-21 23:00:00 20.9 6 Nordeste 13 Este 0.2 -- -- 81
2020-06-21 22:00:00 21.3 7 Este 17 Este 0 -- -- 81
2020-06-21 21:00:00 22.6 9 Este 20 Nordeste 0 -- -- 76
2020-06-21 20:00:00 23.6 12 Este 22 Este 0 -- -- 73
2020-06-21 19:00:00 26.2 3 Sudeste 13 Sudoeste 0.2 -- -- 62
2020-06-21 18:00:00 27.8 6 Sudoeste 23 Sudoeste 0.6 -- -- 48
2020-06-21 17:00:00 29 10 Oeste 24 Sudoeste 0 -- -- 40
2020-06-21 16:00:00 27.7 5 Sur 18 Sudoeste 0 -- -- 51
2020-06-21 15:00:00 27.3 7 Sur 20 Sur 0 -- -- 53
2020-06-21 14:00:00 25.9 4 Sur 17 Oeste 0 -- -- 59
2020-06-21 13:00:00 24 6 Sudoeste 19 Sudoeste 0 -- -- 62
2020-06-21 12:00:00 23.3 4 Sur 15 Sur 0 -- -- 68
2020-06-21 11:00:00 22.2 4 Sudeste 11 Sur 0 -- -- 72
2020-06-21 10:00:00 20.6 2 Sur 9 Sudoeste 0 -- -- 73
2020-06-21 09:00:00 19.2 2 Oeste 4 Este 0 -- -- 86
2020-06-21 08:00:00 16.2 0 Calma 6 Noroeste 0 -- -- 100
2020-06-21 07:00:00 13.1 5 Noroeste 6 Noroeste 0 -- -- 99
2020-06-21 06:00:00 13.1 2 Norte 6 Noroeste 0 -- -- 99
2020-06-21 05:00:00 13.5 0 Calma 5 Noroeste 0 -- -- 98
2020-06-21 04:00:00 14 3 Noroeste 7 Norte 0 -- -- 99
2020-06-21 03:00:00 14.1 2 Nordeste 6 Norte 0 -- -- 99
2020-06-21 02:00:00 14.2 3 Noroeste 5 Noroeste 0 -- -- 97
2020-06-21 01:00:00 15.1 0 Calma 6 Noroeste 0 -- -- 98
2020-06-21 00:00:00 15.5 0 Calma 10 Noroeste 0 -- -- 97
2020-06-20 23:00:00 16.5 4 Noroeste 6 Noroeste 0 -- -- 97
2020-06-20 22:00:00 16.9 0 Calma 15 Este 0.6 -- -- 95
2020-06-20 21:00:00 17.7 7 Nordeste 24 Este 0.2 -- -- 90
2020-06-20 20:00:00 18.4 10 Este 23 Este 0 -- -- 86
2020-06-20 19:00:00 19.2 13 Nordeste 32 Este 0 -- -- 82
2020-06-20 18:00:00 19.6 15 Este 31 Este 0 -- -- 79
2020-06-20 17:00:00 24.6 13 Sur 32 Sur 0 -- -- 65
2020-06-20 16:00:00 26.3 13 Sur 27 Sudoeste 0 -- -- 59
2020-06-20 15:00:00 25.7 12 Sur 28 Sudoeste 0 -- -- 59
2020-06-20 14:00:00 25 7 Sur 23 Sur 0 -- -- 60
2020-06-20 13:00:00 23.8 8 Sudoeste 22 Sur 0 -- -- 62
2020-06-20 12:00:00 22.5 5 Sur 17 Sur 0 -- -- 67
2020-06-20 11:00:00 21.3 3 Sur 15 Sur 0 -- -- 66
2020-06-20 10:00:00 20.6 3 Sudeste 8 Este 0 -- -- 71
2020-06-20 09:00:00 19 3 Sudeste 9 Este 0 -- -- 76
2020-06-20 08:00:00 15.3 0 Calma 5 Norte 0 -- -- 96
2020-06-20 07:00:00 12.9 4 Noroeste 6 Noroeste 0 -- -- 98
2020-06-20 06:00:00 12.7 4 Noroeste 6 Norte 0 -- -- 98
2020-06-20 05:00:00 13.1 2 Noroeste 6 Noroeste 0 -- -- 96
2020-06-20 04:00:00 13.8 0 Calma 5 Este 0 -- -- 95
2020-06-20 03:00:00 14.9 0 Calma 7 Noroeste 0 -- -- 92
2020-06-20 02:00:00 15.8 3 Noroeste 6 Noroeste 0 -- -- 90
2020-06-20 01:00:00 16.4 2 Noroeste 6 Noroeste 0 -- -- 87
2020-06-20 00:00:00 16.8 0 Calma 5 Noroeste 0 -- -- 85
2020-06-19 23:00:00 17.2 3 Oeste 6 Este 0 -- -- 83
2020-06-19 22:00:00 18 0 Calma 8 Sudeste 0 -- -- 78
2020-06-19 21:00:00 19 2 Sur 10 Sudoeste 0 -- -- 74
2020-06-19 20:00:00 20.1 4 Sur 21 Sur 0 -- -- 70
2020-06-19 19:00:00 21.6 4 Sur 21 Sudoeste 0 -- -- 63
2020-06-19 18:00:00 22.2 6 Sur 22 Sudoeste 0 -- -- 62
2020-06-19 17:00:00 22.9 11 Sur 25 Sur 0 -- -- 58
2020-06-19 16:00:00 22.7 9 Sur 24 Sur 0 -- -- 58
2020-06-19 15:00:00 22.2 9 Sur 25 Sudoeste 0 -- -- 59
2020-06-19 14:00:00 20.6 6 Sur 24 Sur 0 -- -- 65
2020-06-19 13:00:00 20.3 8 Sudoeste 22 Sudoeste 0 -- -- 64
2020-06-19 12:00:00 18.6 6 Oeste 13 Oeste 0 -- -- 69
2020-06-19 11:00:00 16.7 3 Oeste 10 Oeste 0 -- -- 70
2020-06-19 10:00:00 15.6 5 Oeste 12 Oeste 0 -- -- 84
2020-06-19 09:00:00 15.2 4 Noroeste 6 Noroeste 0 -- -- 86
2020-06-19 08:00:00 14.4 0 Calma 6 Norte 0 -- -- 95
2020-06-19 07:00:00 14 2 Oeste 5 Oeste 0 -- -- 95
2020-06-19 06:00:00 13.9 3 Sur 6 Sudoeste 0 -- -- 96
2020-06-19 05:00:00 14.2 2 Noroeste 6 Norte 0 -- -- 94
2020-06-19 04:00:00 14.4 3 Noroeste 6 Oeste 0 -- -- 95
2020-06-19 03:00:00 14.3 0 Calma 8 Nordeste 0 -- -- 91
2020-06-19 02:00:00 14.2 3 Norte 8 Norte 0 -- -- 93
2020-06-19 01:00:00 14.2 3 Este 9 Nordeste 0 -- -- 91
2020-06-19 00:00:00 14.2 5 Nordeste 21 Este 0.2 -- -- 94
2020-06-18 23:00:00 14.3 10 Nordeste 25 Este 0 -- -- 93
2020-06-18 22:00:00 15.3 11 Este 20 Este 0 -- -- 88
2020-06-18 21:00:00 16.6 10 Este 22 Este 0 -- -- 84
2020-06-18 20:00:00 20.7 6 Sur 22 Sur 0 -- -- 69
2020-06-18 19:00:00 21.6 5 Sur 18 Sudoeste 0 -- -- 62
2020-06-18 18:00:00 21.5 4 Sur 17 Noroeste 0 -- -- 58
2020-06-18 17:00:00 20.9 9 Sudoeste 27 Sur 0 -- -- 56
2020-06-18 16:00:00 21.8 11 Sur 28 Sur 0 -- -- 57
2020-06-18 15:00:00 21.2 10 Sudoeste 23 Sur 0 -- -- 58
2020-06-18 14:00:00 20.2 8 Sur 21 Sur 0 -- -- 65
2020-06-18 13:00:00 18.2 5 Sur 12 Sudoeste 0 -- -- 72
2020-06-18 12:00:00 15.8 4 Oeste 10 Sudoeste 0 -- -- 80
2020-06-18 11:00:00 13.4 3 Este 13 Sudoeste 0.4 -- -- 92
2020-06-18 10:00:00 12.6 8 Sudoeste 22 Sudoeste 0.4 -- -- 95
2020-06-18 09:00:00 12.4 5 Sur 9 Sur 0.4 -- -- 98
2020-06-18 08:00:00 12.4 0 Calma 13 Oeste 1.8 -- -- 96
2020-06-18 07:00:00 12.7 4 Oeste 8 Oeste 0 -- -- 92
2020-06-18 06:00:00 12.7 5 Nordeste 10 Nordeste 0 -- -- 85
2020-06-18 05:00:00 12.3 3 Norte 8 Nordeste 0 -- -- 89
2020-06-18 04:00:00 12.5 3 Este 10 Nordeste 0 -- -- 88
2020-06-18 03:00:00 13.1 5 Nordeste 12 Nordeste 0 -- -- 87
2020-06-18 02:00:00 13.7 4 Nordeste 10 Este 0 -- -- 83
2020-06-18 01:00:00 14 5 Nordeste 16 Este 0 -- -- 80
2020-06-18 00:00:00 14.1 11 Nordeste 21 Este 0 -- -- 80
2020-06-17 23:00:00 14.3 8 Este 21 Este 0 -- -- 79
2020-06-17 22:00:00 14.7 12 Este 26 Este 0 -- -- 81
2020-06-17 21:00:00 17.2 6 Este 18 Este 0 -- -- 78
2020-06-17 20:00:00 20.5 5 Sur 23 Sur 0 -- -- 65
2020-06-17 19:00:00 21.6 13 Sur 27 Sudoeste 0 -- -- 45
2020-06-17 18:00:00 21.6 14 Sur 28 Sudoeste 0 -- -- 47
2020-06-17 17:00:00 20.3 12 Sudoeste 31 Sudoeste 0 -- -- 52
2020-06-17 16:00:00 20.2 14 Sudoeste 31 Sudoeste 0 -- -- 51
2020-06-17 15:00:00 20.9 16 Sudoeste 31 Sur 0 -- -- 52
2020-06-17 14:00:00 19.5 13 Sudoeste 39 Sudoeste 0 -- -- 63
2020-06-17 13:00:00 18.5 8 Sur 19 Sur 0 -- -- 69
2020-06-17 12:00:00 16.7 4 Sur 14 Sudoeste 0 -- -- 74
2020-06-17 11:00:00 14.9 5 Sudoeste 9 Sudoeste 0 -- -- 82
2020-06-17 10:00:00 13.5 3 Sur 11 Oeste 0 -- -- 90
2020-06-17 09:00:00 12.6 8 Oeste 14 Oeste 0 -- -- 95
2020-06-17 08:00:00 12.5 3 Sur 8 Sur 0 -- -- 98
2020-06-17 07:00:00 12.3 2 Sudeste 8 Este 0 -- -- 98
2020-06-17 06:00:00 12.4 0 Calma 5 Este 0 -- -- 97
2020-06-17 05:00:00 12.6 0 Calma 4 Este 0 -- -- 97
2020-06-17 04:00:00 13 3 Noroeste 5 Norte 0 -- -- 96
2020-06-17 03:00:00 12.9 2 Norte 6 Noroeste 0 -- -- 95
2020-06-17 02:00:00 12 2 Noroeste 5 Noroeste 0 -- -- 97
2020-06-17 01:00:00 12.2 3 Norte 10 Nordeste 0 -- -- 93
2020-06-17 00:00:00 13.1 5 Nordeste 12 Norte 0 -- -- 94
2020-06-16 23:00:00 13.9 0 Calma 5 Este 0 -- -- 94
2020-06-16 22:00:00 15.1 4 Este 14 Este 0 -- -- 90
2020-06-16 21:00:00 16.2 5 Nordeste 13 Norte 0 -- -- 83
2020-06-16 20:00:00 17.2 3 Sur 15 Sudoeste 0 -- -- 84
2020-06-16 19:00:00 17.6 5 Sur 13 Sudoeste 0.2 -- -- 85
2020-06-16 18:00:00 17.5 5 Sur 16 Sur 0 -- -- 83
2020-06-16 17:00:00 16.7 7 Sur 18 Sur 0 -- -- 89
2020-06-16 16:00:00 15.4 7 Sur 19 Sur 0.2 -- -- 94
2020-06-16 15:00:00 14.7 7 Sudoeste 14 Sur 1.2 -- -- 97
2020-06-16 14:00:00 15 8 Sudoeste 18 Sur 0.2 -- -- 94
2020-06-16 13:00:00 15.1 6 Sur 15 Sudoeste 0.4 -- -- 94
2020-06-16 12:00:00 14.6 9 Sur 20 Sur 0.8 -- -- 95
2020-06-16 11:00:00 14.6 7 Sur 16 Sur 1.4 -- -- 98
2020-06-16 10:00:00 14.7 5 Sur 13 Sur 0 -- -- 97
2020-06-16 09:00:00 14.5 5 Sur 9 Sudoeste 1 -- -- 97
2020-06-16 08:00:00 14.2 6 Sudoeste 13 Sudoeste 0 -- -- 96
2020-06-16 07:00:00 14.3 3 Sur 8 Sudoeste 0 -- -- 95
2020-06-16 06:00:00 14.8 2 Sur 5 Sur 0.2 -- -- 94
2020-06-16 05:00:00 15.1 0 Calma 3 Sudoeste 0 -- -- 90
2020-06-16 04:00:00 15.2 2 Noroeste 5 Oeste 0 -- -- 86
2020-06-16 03:00:00 15.4 2 Sudoeste 5 Noroeste 0 -- -- 86
2020-06-16 02:00:00 15.6 3 Noroeste 6 Noroeste 0 -- -- 85
2020-06-16 01:00:00 15.7 3 Norte 8 Nordeste 0 -- -- 80
2020-06-16 00:00:00 16.2 3 Nordeste 9 Nordeste 0 -- -- 78
2020-06-15 23:00:00 16.6 6 Nordeste 17 Este 0 -- -- 75
2020-06-15 22:00:00 16.8 10 Nordeste 23 Nordeste 0 -- -- 72
2020-06-15 21:00:00 17.4 13 Este 27 Este 0 -- -- 70
2020-06-15 20:00:00 18.9 16 Este 26 Este 0 -- -- 68
2020-06-15 19:00:00 23.5 5 Sur 26 Sur 0 -- -- 56
2020-06-15 18:00:00 24.6 6 Sur 27 Sur 0 -- -- 55
2020-06-15 17:00:00 24.2 9 Sur 25 Sur 0 -- -- 56
2020-06-15 16:00:00 24 13 Sur 26 Sur 0 -- -- 52
2020-06-15 15:00:00 22.5 9 Sur 26 Sur 0 -- -- 52
2020-06-15 14:00:00 22.6 17 Sur 32 Sur 0 -- -- 50
2020-06-15 13:00:00 21.9 15 Sur 35 Sudoeste 0 -- -- 55
2020-06-15 12:00:00 20.5 9 Sur 27 Sudoeste 0 -- -- 63
2020-06-15 11:00:00 19.5 9 Sur 23 Sudoeste 0 -- -- 65
2020-06-15 10:00:00 18.4 7 Sur 14 Sudoeste 0 -- -- 66
2020-06-15 09:00:00 16.7 4 Oeste 11 Oeste 0 -- -- 77
2020-06-15 08:00:00 14.3 0 Calma 4 Noroeste 0 -- -- 87
2020-06-15 07:00:00 11.5 4 Noroeste 6 Noroeste 0 -- -- 95
2020-06-15 06:00:00 12.1 4 Norte 6 Norte 0 -- -- 91
2020-06-15 05:00:00 13.8 0 Calma 4 Norte 0 -- -- 90
2020-06-15 04:00:00 14.1 0 Calma 5 Norte 0 -- -- 87
2020-06-15 03:00:00 14.7 0 Calma 8 Noroeste 0 -- -- 81
2020-06-15 02:00:00 15.7 4 Nordeste 11 Nordeste 0 -- -- 74
2020-06-15 01:00:00 16.1 5 Nordeste 14 Nordeste 0 -- -- 72
2020-06-15 00:00:00 16.5 7 Nordeste 15 Este 0 -- -- 72
2020-06-14 23:00:00 17 7 Nordeste 15 Nordeste 0 -- -- 76
2020-06-14 22:00:00 17.6 3 Este 8 Sur 0 -- -- 68
2020-06-14 21:00:00 18.9 4 Sur 12 Sudoeste 0 -- -- 65
2020-06-14 20:00:00 20.2 5 Sur 25 Sur 0 -- -- 63
2020-06-14 19:00:00 21.8 7 Sur 23 Sudoeste 0 -- -- 58
2020-06-14 18:00:00 23.1 7 Sur 30 Sur 0 -- -- 55
2020-06-14 17:00:00 23.6 17 Oeste 34 Sudoeste 0 -- -- 41
2020-06-14 16:00:00 22 15 Oeste 33 Oeste 0 -- -- 42
2020-06-14 15:00:00 22.3 20 Sudoeste 36 Sudoeste 0 -- -- 41
2020-06-14 14:00:00 22.2 21 Sudoeste 35 Sudoeste 0 -- -- 42
2020-06-14 13:00:00 20.2 8 Oeste 24 Sudoeste 0 -- -- 55
2020-06-14 12:00:00 20.2 10 Sudoeste 24 Sudoeste 0 -- -- 57
2020-06-14 11:00:00 18.6 8 Sudoeste 17 Sur 0 -- -- 63
2020-06-14 10:00:00 18.1 4 Sur 12 Sudeste 0 -- -- 68
2020-06-14 09:00:00 16.9 3 Sudeste 6 Sudeste 0 -- -- 72
2020-06-14 08:00:00 12.9 0 Calma 5 Norte 0 -- -- 96
2020-06-14 07:00:00 10.1 4 Noroeste 6 Noroeste 0 -- -- 97
2020-06-14 06:00:00 10 4 Norte 5 Noroeste 0 -- -- 96
2020-06-14 05:00:00 10.5 4 Norte 7 Noroeste 0 -- -- 94
2020-06-14 04:00:00 11.2 5 Noroeste 9 Noroeste 0 -- -- 92
2020-06-14 03:00:00 11.5 5 Noroeste 8 Noroeste 0 -- -- 91
2020-06-14 02:00:00 12.2 3 Noroeste 6 Norte 0 -- -- 87
2020-06-14 01:00:00 13.9 5 Noroeste 8 Noroeste 0 -- -- 80
2020-06-14 00:00:00 15.5 4 Este 11 Este 0 -- -- 76
2020-06-13 23:00:00 15.9 3 Este 14 Sudeste 0 -- -- 76
2020-06-13 22:00:00 16.6 10 Este 25 Sudeste 0 -- -- 72
2020-06-13 21:00:00 18.1 7 Este 22 Este 0 -- -- 65
2020-06-13 20:00:00 21.2 10 Sudoeste 26 Sudoeste 0 -- -- 45
2020-06-13 19:00:00 21.9 15 Sudoeste 30 Sudoeste 0 -- -- 42
2020-06-13 18:00:00 22.4 17 Sudoeste 30 Sur 0 -- -- 43
2020-06-13 17:00:00 22.7 16 Sudoeste 34 Sur 0 -- -- 46
2020-06-13 16:00:00 22 14 Sur 31 Sudoeste 0 -- -- 45
2020-06-13 15:00:00 21.6 15 Sudoeste 34 Sudoeste 0 -- -- 46
2020-06-13 14:00:00 21.1 20 Sudoeste 36 Sudoeste 0 -- -- 45
2020-06-13 13:00:00 20.7 11 Sudoeste 24 Sur 0 -- -- 46
2020-06-13 12:00:00 19.2 14 Sudoeste 24 Sudoeste 0 -- -- 60
2020-06-13 11:00:00 17.1 11 Sudoeste 22 Sudoeste 0 -- -- 63
2020-06-13 10:00:00 15.4 9 Sudoeste 16 Sudoeste 0 -- -- 65
2020-06-13 09:00:00 14.3 2 Sur 8 Sur 0 -- -- 75
2020-06-13 08:00:00 11.4 2 Este 8 Este 0 -- -- 84
2020-06-13 07:00:00 8.8 4 Noroeste 8 Noroeste 0 -- -- 94
2020-06-13 06:00:00 9 3 Noroeste 9 Noroeste 0 -- -- 91
2020-06-13 05:00:00 9.9 0 Calma 7 Noroeste 0 -- -- 91
2020-06-13 04:00:00 10.2 0 Calma 7 Noroeste 0 -- -- 93
2020-06-13 03:00:00 10.2 6 Noroeste 7 Noroeste 0 -- -- 93
2020-06-13 02:00:00 10 3 Noroeste 8 Norte 0 -- -- 91
2020-06-13 01:00:00 10.6 4 Norte 6 Noroeste 0 -- -- 88
2020-06-13 00:00:00 12.4 2 Noroeste 6 Norte 0 -- -- 80
2020-06-12 23:00:00 13.8 4 Noroeste 9 Sudoeste 0 -- -- 71
2020-06-12 22:00:00 15.1 4 Sudoeste 9 Sudoeste 0 -- -- 59
2020-06-12 21:00:00 18.1 6 Sur 20 Sudoeste 0 -- -- 50
2020-06-12 20:00:00 20.2 11 Sudoeste 30 Sudoeste 0 -- -- 41
2020-06-12 19:00:00 20.6 17 Oeste 30 Sudoeste 0 -- -- 40
2020-06-12 18:00:00 20.7 20 Oeste 35 Sudoeste 0 -- -- 41
2020-06-12 17:00:00 20.5 20 Sudoeste 43 Sudoeste 0 -- -- 42
2020-06-12 16:00:00 20.1 21 Sudoeste 39 Sudoeste 0.2 -- -- 47
2020-06-12 15:00:00 20.1 18 Oeste 40 Sudoeste 0 -- -- 48
2020-06-12 14:00:00 19.8 19 Sudoeste 32 Sudoeste 0.2 -- -- 50
2020-06-12 13:00:00 19.1 16 Sudoeste 32 Sur 0.2 -- -- 51
2020-06-12 12:00:00 18.1 14 Sudoeste 31 Oeste 0.2 -- -- 67
2020-06-12 11:00:00 17.7 12 Sudoeste 23 Sur 0 -- -- 71
2020-06-12 10:00:00 15.2 8 Sur 18 Sudoeste 0 -- -- 91
2020-06-12 09:00:00 14.5 7 Sur 15 Sur 0 -- -- 96
2020-06-12 08:00:00 13.9 7 Sur 15 Sur 0 -- -- 100
2020-06-12 07:00:00 13.5 4 Sur 10 Sudoeste 0.2 -- -- 100
2020-06-12 06:00:00 13.3 8 Oeste 24 Sudoeste 17.2 -- -- 99
2020-06-12 05:00:00 14.5 0 Calma 6 Este 0 -- -- 97
2020-06-12 04:00:00 14.3 0 Calma 9 Este 0.2 -- -- 95
2020-06-12 03:00:00 14.1 4 Nordeste 7 Nordeste 0 -- -- 95
2020-06-12 02:00:00 13.9 2 Nordeste 6 Norte 0 -- -- 97
2020-06-12 01:00:00 14.1 5 Este 14 Nordeste 0.2 -- -- 97
2020-06-12 00:00:00 14.1 3 Norte 8 Nordeste 0 -- -- 98
2020-06-11 23:00:00 14.8 4 Noroeste 7 Noroeste 0.2 -- -- 98
2020-06-11 22:00:00 15.2 3 Este 7 Este 0 -- -- 96
2020-06-11 21:00:00 15.6 2 Sudeste 13 Este 0.2 -- -- 94
2020-06-11 20:00:00 16.2 4 Este 9 Este 0.2 -- -- 88
2020-06-11 19:00:00 16.3 4 Nordeste 12 Nordeste 0.2 -- -- 92
2020-06-11 18:00:00 15.1 5 Nordeste 10 Nordeste 1.4 -- -- 94
2020-06-11 17:00:00 14.8 3 Norte 11 Norte 1.8 -- -- 95
2020-06-11 16:00:00 15.3 8 Noroeste 12 Noroeste 0 -- -- 91
2020-06-11 15:00:00 16 5 Noroeste 10 Noroeste 0 -- -- 80
2020-06-11 14:00:00 16.2 8 Noroeste 13 Sudoeste 0 -- -- 80
2020-06-11 13:00:00 15.5 5 Oeste 13 Norte 0.2 -- -- 83
2020-06-11 12:00:00 14.4 8 Noroeste 13 Noroeste 0 -- -- 86
2020-06-11 11:00:00 13.6 6 Noroeste 11 Noroeste 0 -- -- 94
2020-06-11 10:00:00 13.3 3 Sur 9 Sur 0 -- -- 94
2020-06-11 09:00:00 13.4 4 Sudoeste 7 Sur 0.2 -- -- 92
2020-06-11 08:00:00 12 3 Oeste 5 Oeste 0 -- -- 98
2020-06-11 07:00:00 11.1 3 Noroeste 6 Sur 0 -- -- 98
2020-06-11 06:00:00 11 0 Calma 5 Noroeste 0.2 -- -- 96
2020-06-11 05:00:00 10.9 3 Noroeste 6 Noroeste 0 -- -- 96
2020-06-11 04:00:00 11 2 Norte 12 Nordeste 0.2 -- -- 96
2020-06-11 03:00:00 11.2 3 Nordeste 16 Nordeste 0.2 -- -- 95
2020-06-11 02:00:00 11.6 6 Nordeste 13 Nordeste 0.2 -- -- 93
2020-06-11 01:00:00 11.9 5 Nordeste 13 Nordeste 1.8 -- -- 91
2020-06-11 00:00:00 12.7 9 Nordeste 18 Nordeste 0 -- -- 85
2020-06-10 23:00:00 12.9 4 Nordeste 14 Este 0 -- -- 83
2020-06-10 22:00:00 13.3 2 Nordeste 10 Este 0 -- -- 80
2020-06-10 21:00:00 13.5 6 Este 14 Este 0 -- -- 80
2020-06-10 20:00:00 14 5 Este 15 Este 0 -- -- 81
2020-06-10 19:00:00 14.4 10 Este 26 Nordeste 0 -- -- 79
2020-06-10 18:00:00 15.3 12 Este 24 Sudeste 0 -- -- 77
2020-06-10 17:00:00 20.5 8 Sudoeste 21 Sudoeste 0 -- -- 50
2020-06-10 16:00:00 19.9 15 Oeste 28 Sudoeste 0.2 -- -- 50
2020-06-10 15:00:00 18.4 13 Oeste 21 Sur 0 -- -- 59
2020-06-10 14:00:00 18.8 8 Sur 21 Sudoeste 0 -- -- 59
2020-06-10 13:00:00 18.1 7 Sudoeste 23 Sudoeste 0 -- -- 59
2020-06-10 12:00:00 17 7 Sudoeste 16 Sudoeste 0.2 -- -- 68
2020-06-10 11:00:00 14.8 5 Sur 14 Sur 0.2 -- -- 77
2020-06-10 10:00:00 12.7 5 Sur 13 Sudoeste 0.2 -- -- 89
2020-06-10 09:00:00 12 2 Sur 8 Sudoeste 0 -- -- 89
2020-06-10 08:00:00 10 3 Sur 5 Sur 0 -- -- 100
2020-06-10 07:00:00 7.3 0 Calma 6 Norte 0 -- -- 100
2020-06-10 06:00:00 7.1 4 Norte 7 Norte 0 -- -- 99
2020-06-10 05:00:00 7.8 4 Noroeste 8 Noroeste 0 -- -- 98
2020-06-10 04:00:00 8.6 3 Noroeste 7 Noroeste 0 -- -- 97
2020-06-10 03:00:00 9.7 3 Nordeste 9 Norte 0 -- -- 98
2020-06-10 02:00:00 9.6 3 Noroeste 6 Noroeste 0 -- -- 97
2020-06-10 01:00:00 10.5 3 Norte 8 Nordeste 0 -- -- 98
2020-06-10 00:00:00 10.7 0 Calma 6 Norte 0 -- -- 97
2020-06-09 23:00:00 11.6 0 Calma 5 Oeste 0 -- -- 97
2020-06-09 22:00:00 11.9 2 Noroeste 12 Nordeste 0 -- -- 96
2020-06-09 21:00:00 12 8 Nordeste 17 Norte 0 -- -- 93
2020-06-09 20:00:00 12.3 4 Noroeste 9 Noroeste 0 -- -- 91
2020-06-09 19:00:00 12.8 0 Calma 10 Sur 0 -- -- 83
2020-06-09 18:00:00 14.1 3 Sudoeste 19 Este 0 -- -- 81
2020-06-09 17:00:00 14.2 6 Sudeste 19 Este 0 -- -- 78
2020-06-09 16:00:00 15 4 Sur 17 Norte 0 -- -- 84
2020-06-09 15:00:00 17.2 4 Noroeste 12 Noroeste 0.2 -- -- 63
2020-06-09 14:00:00 16.6 10 Oeste 18 Noroeste 0 -- -- 54
2020-06-09 13:00:00 17 3 Este 10 Este 0 -- -- 67
2020-06-09 12:00:00 16 4 Este 9 Sudeste 0.2 -- -- 75
2020-06-09 11:00:00 13 3 Noroeste 9 Sudoeste 0 -- -- 85
2020-06-09 10:00:00 11.8 4 Sudeste 9 Este 0.2 -- -- 95
2020-06-09 09:00:00 10.3 0 Calma 6 Sur 0 -- -- 100
2020-06-09 08:00:00 9.6 2 Sur 6 Sur 0 -- -- 100
2020-06-09 07:00:00 9.1 0 Calma 4 Norte 0 -- -- 100
2020-06-09 06:00:00 7.7 2 Noroeste 5 Noroeste 0 -- -- 100
2020-06-09 05:00:00 7.6 4 Noroeste 6 Noroeste 0 -- -- 100
2020-06-09 04:00:00 8.3 0 Calma 6 Noroeste 0 -- -- 99
2020-06-09 03:00:00 8.9 0 Calma 4 Noroeste 0 -- -- 98
2020-06-09 02:00:00 9.9 0 Calma 5 Sudoeste 0 -- -- 97
2020-06-09 01:00:00 10.8 4 Noroeste 8 Sudoeste 0 -- -- 96
2020-06-09 00:00:00 11.4 4 Oeste 7 Sudoeste 0 -- -- 95
2020-06-08 23:00:00 11.5 0 Calma 9 Nordeste 0.4 -- -- 95
2020-06-08 22:00:00 11.8 4 Nordeste 11 Este 0 -- -- 92
2020-06-08 21:00:00 12.2 5 Este 13 Este 0 -- -- 91
2020-06-08 20:00:00 12.9 5 Este 13 Este 0 -- -- 88
2020-06-08 19:00:00 14.2 3 Sur 12 Sudoeste 0.2 -- -- 87
2020-06-08 18:00:00 12.9 4 Sudoeste 27 Sudoeste 1.2 -- -- 93
2020-06-08 17:00:00 13.8 12 Sudoeste 23 Oeste 0 -- -- 89
2020-06-08 16:00:00 16 9 Sur 26 Sur 0 -- -- 68
2020-06-08 15:00:00 16.9 10 Sudoeste 24 Sudoeste 0 -- -- 67
2020-06-08 14:00:00 14.1 9 Sudoeste 18 Sudoeste 0.2 -- -- 80
2020-06-08 13:00:00 13.7 8 Oeste 15 Sudoeste 0 -- -- 84
2020-06-08 12:00:00 12.5 6 Sur 12 Sur 0 -- -- 90
2020-06-08 11:00:00 11.5 3 Sur 7 Sur 0.2 -- -- 95
2020-06-08 10:00:00 10.7 3 Sudoeste 9 Sur 0 -- -- 98
2020-06-08 09:00:00 10.1 2 Sudeste 8 Sur 0 -- -- 100
2020-06-08 08:00:00 9.9 4 Sur 9 Sur 0.2 -- -- 99
2020-06-08 07:00:00 10.3 5 Oeste 12 Oeste 0 -- -- 100
2020-06-08 06:00:00 10.9 6 Oeste 13 Oeste 0 -- -- 99
2020-06-08 05:00:00 11.1 4 Oeste 8 Oeste 0 -- -- 99
2020-06-08 04:00:00 11.3 5 Oeste 8 Oeste 0.2 -- -- 100
2020-06-08 03:00:00 11.3 3 Noroeste 8 Noroeste 0 -- -- 100
2020-06-08 02:00:00 11.3 4 Oeste 7 Oeste 0.2 -- -- 99
2020-06-08 01:00:00 11.3 2 Oeste 6 Noroeste 0.8 -- -- 99
2020-06-08 00:00:00 11.4 3 Norte 7 Norte 2.2 -- -- 99
2020-06-07 23:00:00 11.6 0 Calma 5 Norte 0.6 -- -- 99
2020-06-07 22:00:00 11.6 0 Calma 6 Este 4 -- -- 99
2020-06-07 21:00:00 11.7 0 Calma 9 Nordeste 2.4 -- -- 99
2020-06-07 20:00:00 11.9 0 Calma 12 Nordeste 4.2 -- -- 98
2020-06-07 19:00:00 12 6 Este 20 Nordeste 4 -- -- 97
2020-06-07 18:00:00 12.3 8 Nordeste 25 Nordeste 7 -- -- 98
2020-06-07 17:00:00 12.5 14 Este 23 Este 5.8 -- -- 99
2020-06-07 16:00:00 12.8 12 Nordeste 23 Nordeste 21.8 -- -- 97
2020-06-07 15:00:00 15.4 16 Nordeste 24 Nordeste 0.4 -- -- 87
2020-06-07 14:00:00 15.1 7 Este 18 Este 0 -- -- 92
2020-06-07 13:00:00 15.5 5 Sudeste 14 Este 0 -- -- 91
2020-06-07 12:00:00 15.2 8 Este 15 Este 6 -- -- 95
2020-06-07 11:00:00 14.7 7 Este 14 Este 0.2 -- -- 90
2020-06-07 10:00:00 15 4 Norte 12 Nordeste 0 -- -- 92
2020-06-07 09:00:00 15 4 Nordeste 11 Nordeste 0 -- -- 94
2020-06-07 08:00:00 14.9 5 Nordeste 10 Nordeste 0 -- -- 93
2020-06-07 07:00:00 14.6 3 Nordeste 8 Nordeste 0.2 -- -- 94
2020-06-07 06:00:00 14.7 4 Nordeste 10 Nordeste 0 -- -- 94
2020-06-07 05:00:00 14.8 4 Este 11 Nordeste 0 -- -- 94
2020-06-07 04:00:00 15.1 4 Este 10 Este 0 -- -- 93
2020-06-07 03:00:00 15.3 7 Nordeste 15 Este 0 -- -- 94
2020-06-07 02:00:00 15.4 6 Nordeste 13 Este 0.2 -- -- 93
2020-06-07 01:00:00 15.6 3 Norte 15 Nordeste 0 -- -- 93
2020-06-07 00:00:00 16.1 9 Nordeste 21 Este 0 -- -- 93
2020-06-06 23:00:00 17 8 Nordeste 19 Nordeste 0.6 -- -- 91
2020-06-06 22:00:00 18.1 7 Este 15 Nordeste 0 -- -- 84
2020-06-06 21:00:00 19.2 2 Sudoeste 10 Sur 0 -- -- 79
2020-06-06 20:00:00 20.7 7 Sur 20 Sudoeste 0 -- -- 71
2020-06-06 19:00:00 22.7 6 Sur 24 Sudoeste 0 -- -- 65
2020-06-06 18:00:00 24.2 8 Sur 26 Sur 0 -- -- 60
2020-06-06 17:00:00 24.9 9 Sur 28 Sur 0 -- -- 60
2020-06-06 16:00:00 25.8 8 Sur 24 Sudoeste 0 -- -- 52
2020-06-06 15:00:00 24.4 6 Sur 27 Sudoeste 0 -- -- 55
2020-06-06 14:00:00 22.8 8 Oeste 21 Sudoeste 0 -- -- 60
2020-06-06 13:00:00 22.2 8 Sur 22 Sur 0 -- -- 62
2020-06-06 12:00:00 20.8 11 Sudoeste 21 Sudoeste 0 -- -- 63
2020-06-06 11:00:00 19.2 6 Sur 15 Sudoeste 0 -- -- 71
2020-06-06 10:00:00 17.9 4 Este 9 Este 0 -- -- 78
2020-06-06 09:00:00 16.8 3 Este 8 Nordeste 0 -- -- 81
2020-06-06 08:00:00 12.9 2 Norte 6 Noroeste 0 -- -- 99
2020-06-06 07:00:00 10 4 Norte 6 Noroeste 0 -- -- 98
2020-06-06 06:00:00 10.6 0 Calma 6 Noroeste 0 -- -- 99
2020-06-06 05:00:00 10.6 2 Norte 5 Norte 0 -- -- 97
2020-06-06 04:00:00 10.9 3 Noroeste 5 Noroeste 0 -- -- 97
2020-06-06 03:00:00 11.4 4 Noroeste 6 Noroeste 0 -- -- 95
2020-06-06 02:00:00 12.5 4 Noroeste 8 Nordeste 0 -- -- 92
2020-06-06 01:00:00 13.8 2 Nordeste 12 Nordeste 0 -- -- 88
2020-06-06 00:00:00 14.7 4 Este 8 Este 0 -- -- 86
2020-06-05 23:00:00 14.5 0 Calma 6 Sur 0 -- -- 86
2020-06-05 22:00:00 17 3 Sur 9 Sur 0 -- -- 73
2020-06-05 21:00:00 19.9 4 Sur 20 Sur 0 -- -- 63
2020-06-05 20:00:00 21.7 10 Sur 22 Sur 0 -- -- 52
2020-06-05 19:00:00 22.8 11 Sur 23 Oeste 0 -- -- 49
2020-06-05 18:00:00 22.9 10 Sudoeste 26 Sudoeste 0 -- -- 48
2020-06-05 17:00:00 21.2 5 Sur 22 Sudoeste 0 -- -- 54
2020-06-05 16:00:00 21.4 6 Sur 22 Sur 0 -- -- 54
2020-06-05 15:00:00 19.9 4 Sur 21 Sudoeste 0 -- -- 58
2020-06-05 14:00:00 19.1 11 Sudoeste 25 Sudoeste 0 -- -- 61
2020-06-05 13:00:00 17 4 Sur 16 Sur 0 -- -- 70
2020-06-05 12:00:00 15.3 4 Sudeste 10 Este 0 -- -- 81
2020-06-05 11:00:00 13.7 2 Sudeste 13 Sur 0 -- -- 86
2020-06-05 10:00:00 11.2 5 Sudoeste 12 Sur 0 -- -- 89
2020-06-05 09:00:00 10.3 2 Sudoeste 8 Oeste 0 -- -- 94
2020-06-05 08:00:00 9.8 2 Norte 5 Noroeste 0 -- -- 97
2020-06-05 07:00:00 9.2 2 Sudoeste 9 Oeste 0 -- -- 99
2020-06-05 06:00:00 9 2 Sur 8 Sudoeste 0 -- -- 99
2020-06-05 05:00:00 9.2 0 Calma 4 Noroeste 0 -- -- 99
2020-06-05 04:00:00 9.3 2 Noroeste 4 Noroeste 0 -- -- 99
2020-06-05 03:00:00 8.9 3 Norte 6 Noroeste 0 -- -- 99
2020-06-05 02:00:00 8.5 2 Noroeste 5 Norte 0 -- -- 96
2020-06-05 01:00:00 9.2 3 Noroeste 7 Noroeste 0 -- -- 95
2020-06-05 00:00:00 10.5 3 Norte 9 Norte 0.2 -- -- 92
2020-06-04 23:00:00 10.9 3 Norte 13 Nordeste 0 -- -- 93
2020-06-04 22:00:00 11.3 5 Este 15 Este 0 -- -- 92
2020-06-04 21:00:00 12.6 5 Este 16 Nordeste 0 -- -- 88
2020-06-04 20:00:00 13.7 10 Nordeste 19 Este 0 -- -- 81
2020-06-04 19:00:00 13.3 10 Nordeste 23 Nordeste 0.4 -- -- 86
2020-06-04 18:00:00 10.9 5 Norte 31 Norte 21.4 -- -- 96
2020-06-04 17:00:00 15.7 3 Sur 19 Sudoeste 0.8 -- -- 85
2020-06-04 16:00:00 17.2 11 Sur 26 Sudoeste 0 -- -- 73
2020-06-04 15:00:00 16.1 8 Sur 30 Sur 0 -- -- 80
2020-06-04 14:00:00 15.2 12 Sudoeste 21 Sudoeste 0 -- -- 82
2020-06-04 13:00:00 14.2 4 Sur 23 Sur 0 -- -- 88
2020-06-04 12:00:00 14.4 5 Sur 16 Sudoeste 0 -- -- 91
2020-06-04 11:00:00 13.7 6 Sur 21 Sur 0 -- -- 94
2020-06-04 10:00:00 13.6 13 Sudoeste 24 Sur 0 -- -- 98
2020-06-04 09:00:00 13.6 6 Sur 17 Sur 1.2 -- -- 100
2020-06-04 08:00:00 13.6 4 Sur 14 Sur 0 -- -- 99
2020-06-04 07:00:00 13.5 4 Sudoeste 12 Sudoeste 0 -- -- 99
2020-06-04 06:00:00 13.7 5 Sur 11 Sudoeste 0 -- -- 99
2020-06-04 05:00:00 13.7 5 Sudoeste 12 Sur 0 -- -- 98
2020-06-04 04:00:00 13.9 6 Sudoeste 15 Sudoeste 0 -- -- 99
2020-06-04 03:00:00 14.2 8 Oeste 14 Sudoeste 0 -- -- 99
2020-06-04 02:00:00 14.3 5 Oeste 9 Oeste 0 -- -- 99
2020-06-04 01:00:00 14.7 2 Sur 10 Sur 0 -- -- 99
2020-06-04 00:00:00 14.9 2 Sur 6 Sudoeste 0 -- -- 98
2020-06-03 23:00:00 14.6 0 Calma 6 Oeste 0.4 -- -- 98
2020-06-03 22:00:00 14.7 2 Sudeste 9 Noroeste 1.4 -- -- 98
2020-06-03 21:00:00 14.7 3 Noroeste 17 Noroeste 5.4 -- -- 98
2020-06-03 20:00:00 15.3 4 Sudeste 16 Nordeste 1.2 -- -- 94
2020-06-03 19:00:00 15.9 5 Este 19 Este 1.2 -- -- 91
2020-06-03 18:00:00 16.6 5 Este 31 Oeste 1.2 -- -- 92
2020-06-03 17:00:00 17.6 15 Nordeste 32 Nordeste 0.4 -- -- 81
2020-06-03 16:00:00 20.1 6 Nordeste 19 Norte 0.8 -- -- 81
2020-06-03 15:00:00 21.1 4 Este 15 Sur 0.2 -- -- 79
2020-06-03 14:00:00 23.8 5 Sur 15 Sudoeste 0 -- -- 63
2020-06-03 13:00:00 21.7 4 Sur 13 Sur 0 -- -- 72
2020-06-03 12:00:00 20.3 6 Sur 13 Sudoeste 0 -- -- 74
2020-06-03 11:00:00 21.1 3 Sur 10 Sur 0 -- -- 79
2020-06-03 10:00:00 20.1 3 Este 6 Este 0 -- -- 81
2020-06-03 09:00:00 17.8 2 Sur 6 Este 0 -- -- 85
2020-06-03 08:00:00 14.9 0 Calma 5 Noroeste 0 -- -- 100
2020-06-03 07:00:00 13.1 3 Noroeste 5 Noroeste 0 -- -- 99
2020-06-03 06:00:00 12.9 3 Noroeste 5 Noroeste 0 -- -- 98
2020-06-03 05:00:00 13.6 4 Noroeste 6 Noroeste 0 -- -- 98
2020-06-03 04:00:00 13.6 4 Noroeste 6 Norte 0 -- -- 97
2020-06-03 03:00:00 14.8 2 Nordeste 5 Nordeste 0 -- -- 96
2020-06-03 02:00:00 15.2 3 Noroeste 5 Norte 0 -- -- 97
2020-06-03 01:00:00 15.8 3 Noroeste 7 Nordeste 0 -- -- 96
2020-06-03 00:00:00 15.8 5 Noroeste 8 Noroeste 0 -- -- 96
2020-06-02 23:00:00 16.4 3 Oeste 6 Oeste 0 -- -- 95
2020-06-02 22:00:00 16.2 2 Noroeste 6 Oeste 0 -- -- 95
2020-06-02 21:00:00 16.4 4 Norte 10 Oeste 0 -- -- 96
2020-06-02 20:00:00 16.3 3 Sudoeste 13 Sudoeste 0.2 -- -- 95
2020-06-02 19:00:00 16.9 7 Sur 17 Sur 0.4 -- -- 91
2020-06-02 18:00:00 19 3 Sur 18 Sudoeste 1.2 -- -- 88
2020-06-02 17:00:00 23 3 Sur 10 Sur 0 -- -- 62
2020-06-02 16:00:00 24 4 Sur 11 Sudoeste 0 -- -- 53
2020-06-02 15:00:00 23.3 4 Sur 17 Sudoeste 0 -- -- 55
2020-06-02 14:00:00 23 4 Sudeste 14 Sur 0 -- -- 63
2020-06-02 13:00:00 21.4 6 Este 14 Este 0 -- -- 66
2020-06-02 12:00:00 20.5 4 Sudeste 15 Este 0 -- -- 73
2020-06-02 11:00:00 18.9 3 Este 10 Este 0 -- -- 72
2020-06-02 10:00:00 17.5 3 Sudeste 8 Este 0 -- -- 82
2020-06-02 09:00:00 16.7 3 Este 10 Nordeste 0 -- -- 86
2020-06-02 08:00:00 13.5 5 Nordeste 10 Nordeste 0 -- -- 100
2020-06-02 07:00:00 11.2 5 Noroeste 8 Nordeste 0 -- -- 100
2020-06-02 06:00:00 11.4 3 Noroeste 7 Noroeste 0 -- -- 100
2020-06-02 05:00:00 10.8 2 Norte 5 Noroeste 0 -- -- 99
2020-06-02 04:00:00 11.2 2 Noroeste 5 Noroeste 0 -- -- 98
2020-06-02 03:00:00 12.1 0 Calma 8 Noroeste 0 -- -- 99
2020-06-02 02:00:00 12.6 3 Nordeste 5 Este 0 -- -- 99
2020-06-02 01:00:00 12.7 0 Calma 5 Noroeste 0 -- -- 98
2020-06-02 00:00:00 13.1 0 Calma 5 Norte 0 -- -- 97